createdAt,value
2023-05-07T00:04:20.960Z,30.33
2023-05-07T00:09:24.841Z,22.90
2023-05-07T00:14:28.024Z,19.33
2023-05-07T00:19:31.165Z,21.27
2023-05-07T00:24:34.460Z,23.03
2023-05-07T00:29:38.149Z,23.73
2023-05-07T00:34:41.629Z,21.63
2023-05-07T00:39:45.242Z,22.03
2023-05-07T00:44:48.862Z,25.27
2023-05-07T00:49:52.813Z,25.03
2023-05-07T00:54:56.484Z,23.73
2023-05-07T00:59:59.976Z,26.87
2023-05-07T01:05:07.013Z,26.13
2023-05-07T01:10:12.013Z,30.23
2023-05-07T01:15:16.722Z,24.97
2023-05-07T01:20:20.980Z,27.77
2023-05-07T01:25:24.696Z,33.63
2023-05-07T01:30:29.012Z,30.53
2023-05-07T01:35:44.421Z,32.80
2023-05-07T01:40:48.017Z,27.03
2023-05-07T01:45:51.528Z,23.43
2023-05-07T01:50:55.154Z,29.97
2023-05-07T01:55:58.610Z,21.70
2023-05-07T02:01:01.868Z,13.47
2023-05-07T02:06:05.150Z,16.57
2023-05-07T02:11:08.731Z,12.57
2023-05-07T02:16:12.243Z,13.27
2023-05-07T02:21:15.780Z,13.77
2023-05-07T02:26:20.593Z,12.10
2023-05-07T02:31:23.723Z,15.63
2023-05-07T02:36:28.096Z,13.43
2023-05-07T02:41:31.464Z,15.23
2023-05-07T02:46:35.153Z,16.97
2023-05-07T02:51:38.596Z,17.70
2023-05-07T02:56:41.934Z,15.87
2023-05-07T03:01:46.601Z,19.57
2023-05-07T03:06:49.942Z,17.27
2023-05-07T03:11:53.365Z,22.07
2023-05-07T03:16:56.652Z,20.63
2023-05-07T03:21:59.730Z,20.67
2023-05-07T03:27:02.940Z,22.17
2023-05-07T03:32:07.327Z,20.67
2023-05-07T03:37:10.478Z,18.93
2023-05-07T03:42:13.756Z,20.17
2023-05-07T03:47:17.005Z,16.90
2023-05-07T03:52:25.090Z,20.93
2023-05-07T03:57:28.328Z,19.50
2023-05-07T04:02:31.928Z,24.37
2023-05-07T04:07:35.419Z,20.30
2023-05-07T04:12:38.669Z,18.27
2023-05-07T04:17:42.990Z,22.47
2023-05-07T04:22:46.314Z,22.57
2023-05-07T04:27:50.371Z,17.37
2023-05-07T04:32:54.449Z,20.07
2023-05-07T04:37:57.718Z,21.17
2023-05-07T04:43:00.956Z,22.57
2023-05-07T04:48:04.344Z,25.53
2023-05-07T04:53:07.559Z,27.03
2023-05-07T04:58:10.934Z,27.80
2023-05-07T05:03:14.511Z,24.93
2023-05-07T05:08:18.496Z,24.67
2023-05-07T05:13:22.756Z,23.97
2023-05-07T05:18:26.043Z,22.17
2023-05-07T05:23:29.361Z,22.93
2023-05-07T05:28:32.532Z,24.00
2023-05-07T05:33:36.362Z,21.17
2023-05-07T05:38:40.144Z,28.27
2023-05-07T05:43:43.353Z,24.03
2023-05-07T05:48:46.514Z,24.50
2023-05-07T05:53:49.976Z,22.50
2023-05-07T05:58:53.378Z,19.93
2023-05-07T06:03:57.293Z,15.57
2023-05-07T06:09:00.452Z,15.60
2023-05-07T06:14:03.611Z,12.13
2023-05-07T06:19:06.942Z,11.77
2023-05-07T06:24:10.478Z,10.63
2023-05-07T06:29:13.720Z,12.83
2023-05-07T06:34:17.007Z,8.63
2023-05-07T06:39:20.529Z,9.93
2023-05-07T06:44:23.772Z,11.20
2023-05-07T06:49:27.380Z,8.17
2023-05-07T06:54:31.173Z,8.13
2023-05-07T06:59:34.533Z,7.70
2023-05-07T07:04:39.678Z,8.30
2023-05-07T07:09:43.203Z,7.67
2023-05-07T07:14:46.906Z,9.80
2023-05-07T07:19:50.267Z,8.20
2023-05-07T07:24:53.420Z,6.30
2023-05-07T07:29:56.917Z,8.43
2023-05-07T07:35:00.183Z,7.93
2023-05-07T07:40:03.356Z,8.00
2023-05-07T07:45:07.518Z,8.37
2023-05-07T07:50:11.734Z,6.63
2023-05-07T07:55:22.792Z,5.70
2023-05-07T08:00:26.136Z,7.97
2023-05-07T08:05:29.445Z,7.43
2023-05-07T08:10:36.106Z,6.83
2023-05-07T08:15:39.571Z,7.30
2023-05-07T08:20:43.158Z,6.23
2023-05-07T08:25:46.815Z,7.03
2023-05-07T08:30:50.532Z,9.13
2023-05-07T08:35:54.061Z,10.87
2023-05-07T08:40:57.134Z,5.70
2023-05-07T08:46:03.994Z,6.47
2023-05-07T08:51:07.480Z,6.10
2023-05-07T08:56:11.680Z,5.43
2023-05-07T09:01:16.301Z,8.00
2023-05-07T09:06:19.888Z,7.47
2023-05-07T09:11:26.266Z,8.33
2023-05-07T09:16:32.011Z,8.70
2023-05-07T09:21:35.437Z,7.00
2023-05-07T09:26:38.806Z,10.93
2023-05-07T09:31:42.114Z,7.63
2023-05-07T09:36:45.431Z,6.90
2023-05-07T09:41:49.046Z,7.10
2023-05-07T09:46:56.803Z,5.27
2023-05-07T09:52:02.705Z,9.00
2023-05-07T09:57:08.368Z,6.00
2023-05-07T10:02:13.012Z,4.50
2023-05-07T10:07:18.394Z,6.13
2023-05-07T10:12:21.867Z,5.10
2023-05-07T10:17:25.727Z,5.53
2023-05-07T10:22:29.584Z,5.93
2023-05-07T10:27:33.219Z,5.20
2023-05-07T10:32:48.321Z,5.60
2023-05-07T10:37:52.406Z,5.27
2023-05-07T10:43:03.944Z,7.00
2023-05-07T10:48:27.335Z,7.43
2023-05-07T10:53:32.334Z,5.23
2023-05-07T10:58:38.354Z,5.67
2023-05-07T11:04:14.499Z,6.80
2023-05-07T11:09:18.040Z,4.87
2023-05-07T11:14:43.866Z,4.77
2023-05-07T11:19:57.594Z,7.07
2023-05-07T11:25:05.049Z,6.27
2023-05-07T11:30:09.221Z,4.67
2023-05-07T11:35:12.674Z,5.57
2023-05-07T11:40:16.324Z,4.37
2023-05-07T11:45:29.278Z,4.97
2023-05-07T11:50:32.575Z,3.73
2023-05-07T11:55:35.970Z,3.90
2023-05-07T12:00:39.299Z,4.25
2023-05-07T12:05:43.289Z,4.93
2023-05-07T12:16:14.844Z,5.03
2023-05-07T12:27:18.882Z,4.23
2023-05-07T12:32:23.298Z,2.97
2023-05-07T12:37:30.365Z,6.53
2023-05-07T12:42:39.508Z,3.43
2023-05-07T12:47:47.331Z,7.50
2023-05-07T12:52:50.896Z,6.13
2023-05-07T12:57:54.933Z,5.85
2023-05-07T13:03:00.617Z,6.38
2023-05-07T13:08:03.774Z,4.27
2023-05-07T13:13:06.886Z,5.63
2023-05-07T13:18:12.597Z,5.33
2023-05-07T13:23:16.042Z,9.17
2023-05-07T13:28:19.190Z,3.83
2023-05-07T13:33:22.314Z,5.13
2023-05-07T13:38:25.488Z,3.50
2023-05-07T13:43:28.733Z,3.50
2023-05-07T13:48:31.779Z,4.93
2023-05-07T13:53:34.941Z,4.32
2023-05-07T13:58:42.191Z,4.85
2023-05-07T14:03:51.889Z,6.95
2023-05-07T14:08:55.079Z,3.00
2023-05-07T14:13:59.749Z,3.55
2023-05-07T14:19:02.848Z,3.47
2023-05-07T14:24:08.905Z,3.65
2023-05-07T14:29:11.987Z,4.43
2023-05-07T14:34:15.308Z,4.75
2023-05-07T14:39:18.400Z,5.88
2023-05-07T14:44:21.924Z,4.38
2023-05-07T14:49:25.070Z,3.40
2023-05-07T14:54:28.265Z,4.75
2023-05-07T14:59:31.502Z,4.10
2023-05-07T15:04:34.972Z,6.30
2023-05-07T15:09:37.960Z,3.38
2023-05-07T15:14:41.081Z,2.65
2023-05-07T15:19:44.232Z,3.75
2023-05-07T15:24:47.272Z,3.80
2023-05-07T15:29:50.382Z,4.38
2023-05-07T15:34:53.388Z,4.78
2023-05-07T15:39:56.830Z,5.72
2023-05-07T15:45:01.732Z,2.90
2023-05-07T15:50:05.660Z,3.03
2023-05-07T15:55:10.261Z,4.22
2023-05-07T16:00:14.641Z,3.63
2023-05-07T16:05:18.114Z,3.70
2023-05-07T16:10:21.505Z,3.35
2023-05-07T16:15:24.600Z,2.05
2023-05-07T16:20:31.200Z,4.70
2023-05-07T16:25:35.223Z,2.60
2023-05-07T16:30:38.602Z,4.25
2023-05-07T16:35:42.887Z,4.30
2023-05-07T16:40:46.507Z,3.83
2023-05-07T16:45:49.752Z,4.20
2023-05-07T16:50:52.822Z,3.45
2023-05-07T16:55:56.751Z,3.15
2023-05-07T17:01:00.831Z,4.05
2023-05-07T17:06:04.153Z,4.35
2023-05-07T17:11:07.343Z,8.65
2023-05-07T17:16:11.094Z,5.70
2023-05-07T17:21:14.919Z,3.63
2023-05-07T17:26:18.062Z,5.60
2023-05-07T17:31:21.367Z,5.45
2023-05-07T17:36:24.667Z,24.77
2023-05-07T17:41:27.859Z,9.25
2023-05-07T17:46:31.103Z,7.47
2023-05-07T17:51:46.280Z,8.48
2023-05-07T17:56:56.909Z,9.93
2023-05-07T18:02:00.489Z,8.73
2023-05-07T18:07:03.554Z,7.53
2023-05-07T18:12:07.860Z,9.03
2023-05-07T18:17:11.397Z,10.63
2023-05-07T18:22:14.469Z,7.87
2023-05-07T18:27:17.746Z,7.60
2023-05-07T18:32:23.143Z,7.97
2023-05-07T18:37:27.256Z,7.27
2023-05-07T18:42:33.946Z,5.00
2023-05-07T18:47:39.880Z,12.70
2023-05-07T18:52:43.948Z,9.37
2023-05-07T18:57:48.262Z,10.33
2023-05-07T19:02:52.944Z,9.73
2023-05-07T19:07:57.128Z,8.77
2023-05-07T19:13:04.892Z,7.43
2023-05-07T19:18:13.690Z,9.93
2023-05-07T19:23:17.140Z,9.23
2023-05-07T19:28:22.683Z,8.47
2023-05-07T19:33:26.289Z,10.93
2023-05-07T19:38:29.701Z,10.23
2023-05-07T19:43:38.575Z,28.57
2023-05-07T19:48:42.131Z,23.83
2023-05-07T19:53:46.274Z,24.17
2023-05-07T19:58:50.096Z,33.37
2023-05-07T20:03:54.909Z,24.23
2023-05-07T20:08:58.237Z,22.13
2023-05-07T20:14:01.930Z,18.57
2023-05-07T20:19:05.128Z,15.93
2023-05-07T20:24:08.690Z,12.10
2023-05-07T20:29:11.788Z,23.83
2023-05-07T20:34:14.872Z,28.03
2023-05-07T20:39:18.824Z,31.33
2023-05-07T20:44:21.835Z,17.83
2023-05-07T20:49:24.916Z,21.17
2023-05-07T20:54:30.964Z,16.20
2023-05-07T20:59:35.476Z,13.73
2023-05-07T21:04:40.491Z,19.57
2023-05-07T21:09:44.039Z,18.83
2023-05-07T21:14:47.058Z,19.43
2023-05-07T21:19:50.794Z,16.57
2023-05-07T21:24:54.110Z,19.60
2023-05-07T21:30:03.540Z,18.97
2023-05-07T21:35:07.240Z,24.90
2023-05-07T21:40:11.034Z,137.23
2023-05-07T21:45:14.427Z,175.97
2023-05-07T21:50:17.423Z,75.83
2023-05-07T21:55:20.773Z,55.30
2023-05-07T22:00:23.987Z,65.63
2023-05-07T22:05:27.009Z,82.87
2023-05-07T22:10:29.989Z,49.13
2023-05-07T22:15:35.392Z,50.33
2023-05-07T22:20:40.494Z,36.10
2023-05-07T22:25:43.528Z,41.37
2023-05-07T22:30:46.593Z,47.03
2023-05-07T22:35:49.565Z,44.97
2023-05-07T22:40:52.587Z,46.73
2023-05-07T22:46:01.352Z,45.40
2023-05-07T22:51:04.567Z,40.33
2023-05-07T22:56:08.623Z,46.50
2023-05-07T23:01:14.263Z,40.13
2023-05-07T23:06:17.508Z,31.67
2023-05-07T23:11:21.336Z,26.63
2023-05-07T23:16:24.474Z,21.67
2023-05-07T23:21:27.860Z,23.63
2023-05-07T23:26:31.016Z,23.43
2023-05-07T23:31:34.435Z,28.27
2023-05-07T23:36:37.556Z,34.60
2023-05-07T23:41:40.624Z,102.10
2023-05-07T23:46:44.903Z,61.67
2023-05-07T23:51:48.017Z,41.33
2023-05-07T23:56:51.132Z,48.53
